Nearby METAR Reports

 

LIRQ - Firenze, Italy
Distance from station: NNE 20km
Mise à jour: 09/12/2018 23:50
Fog, partiellement nuageux
Fog, partiellement nuageux
 Wind from varies
Vent: varies 2 km/h
Température: 5°C
Point de rosée: 5°C
Humidité: 100%
Baromètre: 1011 hPa
Résumé: Fog
Clouds: partiellement nuageux
Visibility: 1 km
2018/12/09 22:50 LIRQ 092250Z VRB01KT 0800 R05/0400N FG NSC 05/05 Q1011
LIRP - Pisa, Italy
Distance from station: O 55km
Mise à jour: 09/12/2018 23:15
clair
clair
 Wind from N
Vent: N 4 km/h
Température: 9°C
Point de rosée: 9°C
Humidité: 100%
Baromètre: 1010 hPa
Résumé: clair
Visibility: greater than 10 km
2018/12/09 22:15 LIRP 092215Z 36002KT CAVOK 09/09 Q1010 NOSIG
 
LIVC - Monte Cimone, Italy
Distance from station: NNO 69km
Mise à jour: 05/12/2018 00:55
NOT Current
clair
clair
 Wind from NNE
Vent: NNE 15 km/h
Température: 2°C
Wind Chill: -2°C
Point de rosée: -8°C
Humidité: 48%
Baromètre: 1023 hPa
Résumé: clair
Visibility: greater than 10 km
2018/12/04 23:55 LIVC 042355Z 02008KT CAVOK 02/M08 Q1023
LIRS - Grosseto, Italy
Distance from station: S 98km
Mise à jour: 09/12/2018 22:55
Few Clouds
Few Clouds
 Wind from SO
Vent: SO 11 km/h
Température: 13°C
Point de rosée: 9°C
Humidité: 77%
Baromètre: 1011 hPa
Clouds: Few Clouds
Visibility: 10 km
Cloud details: Few Clouds 610 m
2018/12/09 21:55 LIRS 092155Z 23006KT 9999 FEW020 13/09 Q1011